sensor_id;sensor_type;location;lat;lon;timestamp;P1;durP1;ratioP1;P2;durP2;ratioP2
48935;SDS011;34745;52.276;10.528;2024-01-10T00:01:13;0.90;;;0.90;;
48935;SDS011;34745;52.276;10.528;2024-01-10T00:03:41;0.90;;;0.90;;
48935;SDS011;34745;52.276;10.528;2024-01-10T00:06:11;0.80;;;0.80;;
48935;SDS011;34745;52.276;10.528;2024-01-10T00:08:38;0.90;;;0.90;;
48935;SDS011;34745;52.276;10.528;2024-01-10T00:11:06;0.87;;;0.87;;
48935;SDS011;34745;52.276;10.528;2024-01-10T00:13:33;0.90;;;0.90;;
48935;SDS011;34745;52.276;10.528;2024-01-10T00:16:01;0.90;;;0.90;;
48935;SDS011;34745;52.276;10.528;2024-01-10T00:18:28;0.80;;;0.80;;
48935;SDS011;34745;52.276;10.528;2024-01-10T00:20:59;0.90;;;0.90;;
48935;SDS011;34745;52.276;10.528;2024-01-10T00:23:30;0.90;;;0.90;;
48935;SDS011;34745;52.276;10.528;2024-01-10T00:25:57;0.90;;;0.90;;
48935;SDS011;34745;52.276;10.528;2024-01-10T00:28:25;0.90;;;0.90;;
48935;SDS011;34745;52.276;10.528;2024-01-10T00:30:53;0.80;;;0.80;;
48935;SDS011;34745;52.276;10.528;2024-01-10T00:33:20;0.90;;;0.90;;
48935;SDS011;34745;52.276;10.528;2024-01-10T00:35:48;0.80;;;0.80;;
48935;SDS011;34745;52.276;10.528;2024-01-10T00:38:16;0.83;;;0.83;;
48935;SDS011;34745;52.276;10.528;2024-01-10T00:40:45;0.90;;;0.90;;
48935;SDS011;34745;52.276;10.528;2024-01-10T00:43:16;0.80;;;0.80;;
48935;SDS011;34745;52.276;10.528;2024-01-10T00:45:44;0.90;;;0.90;;
48935;SDS011;34745;52.276;10.528;2024-01-10T00:48:12;0.90;;;0.90;;
48935;SDS011;34745;52.276;10.528;2024-01-10T00:50:39;0.90;;;0.90;;
48935;SDS011;34745;52.276;10.528;2024-01-10T00:53:18;0.90;;;0.90;;
48935;SDS011;34745;52.276;10.528;2024-01-10T00:55:46;0.90;;;0.90;;
48935;SDS011;34745;52.276;10.528;2024-01-10T00:58:13;0.80;;;0.80;;
48935;SDS011;34745;52.276;10.528;2024-01-10T01:00:40;1.00;;;1.00;;
48935;SDS011;34745;52.276;10.528;2024-01-10T01:03:07;1.00;;;1.00;;
48935;SDS011;34745;52.276;10.528;2024-01-10T01:05:34;0.90;;;0.90;;
48935;SDS011;34745;52.276;10.528;2024-01-10T01:08:02;0.83;;;0.83;;
48935;SDS011;34745;52.276;10.528;2024-01-10T01:10:29;0.90;;;0.90;;
48935;SDS011;34745;52.276;10.528;2024-01-10T01:12:59;0.90;;;0.90;;
48935;SDS011;34745;52.276;10.528;2024-01-10T01:15:26;0.90;;;0.90;;
48935;SDS011;34745;52.276;10.528;2024-01-10T01:17:53;0.87;;;0.87;;
48935;SDS011;34745;52.276;10.528;2024-01-10T01:20:21;0.80;;;0.80;;
48935;SDS011;34745;52.276;10.528;2024-01-10T01:22:48;0.90;;;0.90;;
48935;SDS011;34745;52.276;10.528;2024-01-10T01:25:15;0.90;;;0.90;;
48935;SDS011;34745;52.276;10.528;2024-01-10T01:27:42;0.80;;;0.80;;
48935;SDS011;34745;52.276;10.528;2024-01-10T01:30:11;1.00;;;1.00;;
48935;SDS011;34745;52.276;10.528;2024-01-10T01:32:38;0.80;;;0.80;;
48935;SDS011;34745;52.276;10.528;2024-01-10T01:35:05;1.00;;;1.00;;
48935;SDS011;34745;52.276;10.528;2024-01-10T01:37:33;0.90;;;0.90;;
48935;SDS011;34745;52.276;10.528;2024-01-10T01:40:00;0.90;;;0.90;;
48935;SDS011;34745;52.276;10.528;2024-01-10T01:42:27;0.83;;;0.83;;
48935;SDS011;34745;52.276;10.528;2024-01-10T01:44:54;0.80;;;0.80;;
48935;SDS011;34745;52.276;10.528;2024-01-10T02:09:59;0.90;;;0.90;;
48935;SDS011;34745;52.276;10.528;2024-01-10T02:20:44;0.90;;;0.90;;
48935;SDS011;34745;52.276;10.528;2024-01-10T02:37:34;0.80;;;0.80;;
48935;SDS011;34745;52.276;10.528;2024-01-10T02:41:35;1.00;;;1.00;;
48935;SDS011;34745;52.276;10.528;2024-01-10T02:44:44;0.90;;;0.90;;
48935;SDS011;34745;52.276;10.528;2024-01-10T02:47:16;0.90;;;0.90;;
48935;SDS011;34745;52.276;10.528;2024-01-10T02:50:05;0.90;;;0.90;;
48935;SDS011;34745;52.276;10.528;2024-01-10T02:53:12;0.90;;;0.90;;
48935;SDS011;34745;52.276;10.528;2024-01-10T02:56:07;1.00;;;1.00;;
48935;SDS011;34745;52.276;10.528;2024-01-10T02:58:55;1.00;;;1.00;;
48935;SDS011;34745;52.276;10.528;2024-01-10T03:05:34;1.00;;;1.00;;
48935;SDS011;34745;52.276;10.528;2024-01-10T03:08:18;0.90;;;0.90;;
48935;SDS011;34745;52.276;10.528;2024-01-10T03:11:04;0.90;;;0.90;;
48935;SDS011;34745;52.276;10.528;2024-01-10T03:14:00;0.90;;;0.90;;
48935;SDS011;34745;52.276;10.528;2024-01-10T03:17:00;0.90;;;0.90;;
48935;SDS011;34745;52.276;10.528;2024-01-10T03:27:36;0.90;;;0.90;;
48935;SDS011;34745;52.276;10.528;2024-01-10T03:34:59;0.90;;;0.90;;
48935;SDS011;34745;52.276;10.528;2024-01-10T03:38:14;1.00;;;1.00;;
48935;SDS011;34745;52.276;10.528;2024-01-10T03:41:20;1.00;;;1.00;;
48935;SDS011;34745;52.276;10.528;2024-01-10T03:43:56;0.97;;;0.97;;
48935;SDS011;34745;52.276;10.528;2024-01-10T03:46:41;0.83;;;0.83;;
48935;SDS011;34745;52.276;10.528;2024-01-10T03:49:14;0.90;;;0.90;;
48935;SDS011;34745;52.276;10.528;2024-01-10T03:51:56;0.90;;;0.90;;
48935;SDS011;34745;52.276;10.528;2024-01-10T03:58:52;0.90;;;0.90;;
48935;SDS011;34745;52.276;10.528;2024-01-10T04:01:34;0.87;;;0.87;;
48935;SDS011;34745;52.276;10.528;2024-01-10T04:04:16;0.90;;;0.90;;
48935;SDS011;34745;52.276;10.528;2024-01-10T04:06:49;1.00;;;1.00;;
48935;SDS011;34745;52.276;10.528;2024-01-10T04:09:28;0.97;;;0.97;;
48935;SDS011;34745;52.276;10.528;2024-01-10T04:12:37;1.00;;;1.00;;
48935;SDS011;34745;52.276;10.528;2024-01-10T04:44:07;1.00;;;1.00;;
48935;SDS011;34745;52.276;10.528;2024-01-10T04:47:14;1.00;;;1.00;;
48935;SDS011;34745;52.276;10.528;2024-01-10T04:51:04;0.90;;;0.90;;
48935;SDS011;34745;52.276;10.528;2024-01-10T05:04:48;1.00;;;1.00;;
48935;SDS011;34745;52.276;10.528;2024-01-10T05:07:56;1.00;;;1.00;;
48935;SDS011;34745;52.276;10.528;2024-01-10T05:10:47;1.00;;;1.00;;
48935;SDS011;34745;52.276;10.528;2024-01-10T05:13:49;0.90;;;0.90;;
48935;SDS011;34745;52.276;10.528;2024-01-10T05:16:29;0.90;;;0.90;;
48935;SDS011;34745;52.276;10.528;2024-01-10T05:19:11;1.00;;;1.00;;
48935;SDS011;34745;52.276;10.528;2024-01-10T05:21:55;1.00;;;1.00;;
48935;SDS011;34745;52.276;10.528;2024-01-10T05:24:29;0.90;;;0.90;;
48935;SDS011;34745;52.276;10.528;2024-01-10T05:27:08;1.00;;;1.00;;
48935;SDS011;34745;52.276;10.528;2024-01-10T05:29:49;1.00;;;1.00;;
48935;SDS011;34745;52.276;10.528;2024-01-10T05:32:40;0.90;;;0.90;;
48935;SDS011;34745;52.276;10.528;2024-01-10T05:35:22;1.00;;;1.00;;
48935;SDS011;34745;52.276;10.528;2024-01-10T05:45:00;1.00;;;1.00;;
48935;SDS011;34745;52.276;10.528;2024-01-10T05:48:20;1.00;;;1.00;;
48935;SDS011;34745;52.276;10.528;2024-01-10T05:50:47;1.00;;;1.00;;
48935;SDS011;34745;52.276;10.528;2024-01-10T05:53:14;1.00;;;1.00;;
48935;SDS011;34745;52.276;10.528;2024-01-10T05:55:43;1.00;;;1.00;;
48935;SDS011;34745;52.276;10.528;2024-01-10T05:58:12;0.97;;;0.97;;
48935;SDS011;34745;52.276;10.528;2024-01-10T06:00:39;1.00;;;1.00;;
48935;SDS011;34745;52.276;10.528;2024-01-10T06:03:06;1.00;;;1.00;;
48935;SDS011;34745;52.276;10.528;2024-01-10T06:05:34;0.90;;;0.90;;
48935;SDS011;34745;52.276;10.528;2024-01-10T06:08:01;1.10;;;1.10;;
48935;SDS011;34745;52.276;10.528;2024-01-10T06:10:30;1.03;;;1.03;;
48935;SDS011;34745;52.276;10.528;2024-01-10T06:13:01;0.90;;;0.90;;
48935;SDS011;34745;52.276;10.528;2024-01-10T06:15:31;0.97;;;0.97;;
48935;SDS011;34745;52.276;10.528;2024-01-10T06:17:58;0.90;;;0.90;;
48935;SDS011;34745;52.276;10.528;2024-01-10T06:20:26;0.90;;;0.90;;
48935;SDS011;34745;52.276;10.528;2024-01-10T06:22:54;1.00;;;1.00;;
48935;SDS011;34745;52.276;10.528;2024-01-10T06:25:22;1.00;;;1.00;;
48935;SDS011;34745;52.276;10.528;2024-01-10T06:27:50;1.00;;;1.00;;
48935;SDS011;34745;52.276;10.528;2024-01-10T06:30:17;1.00;;;1.00;;
48935;SDS011;34745;52.276;10.528;2024-01-10T06:32:47;0.97;;;0.97;;
48935;SDS011;34745;52.276;10.528;2024-01-10T06:35:15;0.90;;;0.90;;
48935;SDS011;34745;52.276;10.528;2024-01-10T06:37:42;0.87;;;0.87;;
48935;SDS011;34745;52.276;10.528;2024-01-10T06:40:11;1.00;;;1.00;;
48935;SDS011;34745;52.276;10.528;2024-01-10T06:42:38;0.97;;;0.97;;
48935;SDS011;34745;52.276;10.528;2024-01-10T06:45:06;0.90;;;0.90;;
48935;SDS011;34745;52.276;10.528;2024-01-10T06:47:35;0.80;;;0.80;;
48935;SDS011;34745;52.276;10.528;2024-01-10T06:50:04;0.90;;;0.90;;
48935;SDS011;34745;52.276;10.528;2024-01-10T06:52:32;1.00;;;1.00;;
48935;SDS011;34745;52.276;10.528;2024-01-10T06:54:59;0.90;;;0.90;;
48935;SDS011;34745;52.276;10.528;2024-01-10T06:57:26;1.00;;;1.00;;
48935;SDS011;34745;52.276;10.528;2024-01-10T06:59:53;0.97;;;0.97;;
48935;SDS011;34745;52.276;10.528;2024-01-10T07:02:20;1.00;;;1.00;;
48935;SDS011;34745;52.276;10.528;2024-01-10T07:04:49;0.90;;;0.90;;
48935;SDS011;34745;52.276;10.528;2024-01-10T07:07:18;1.00;;;1.00;;
48935;SDS011;34745;52.276;10.528;2024-01-10T07:09:45;0.93;;;0.93;;
48935;SDS011;34745;52.276;10.528;2024-01-10T07:12:12;0.97;;;0.97;;
48935;SDS011;34745;52.276;10.528;2024-01-10T07:14:39;1.00;;;1.00;;
48935;SDS011;34745;52.276;10.528;2024-01-10T07:17:07;0.80;;;0.80;;
48935;SDS011;34745;52.276;10.528;2024-01-10T07:19:34;1.00;;;1.00;;
48935;SDS011;34745;52.276;10.528;2024-01-10T07:22:01;1.00;;;1.00;;
48935;SDS011;34745;52.276;10.528;2024-01-10T07:24:29;0.90;;;0.90;;
48935;SDS011;34745;52.276;10.528;2024-01-10T07:26:57;0.90;;;0.90;;
48935;SDS011;34745;52.276;10.528;2024-01-10T07:29:25;1.00;;;1.00;;
48935;SDS011;34745;52.276;10.528;2024-01-10T07:31:52;0.90;;;0.90;;
48935;SDS011;34745;52.276;10.528;2024-01-10T07:34:20;1.00;;;1.00;;
48935;SDS011;34745;52.276;10.528;2024-01-10T07:36:47;1.00;;;1.00;;
48935;SDS011;34745;52.276;10.528;2024-01-10T07:39:14;1.00;;;1.00;;
48935;SDS011;34745;52.276;10.528;2024-01-10T07:41:48;1.00;;;1.00;;
48935;SDS011;34745;52.276;10.528;2024-01-10T07:44:16;0.97;;;0.97;;
48935;SDS011;34745;52.276;10.528;2024-01-10T07:46:43;0.90;;;0.90;;
48935;SDS011;34745;52.276;10.528;2024-01-10T07:49:10;0.90;;;0.90;;
48935;SDS011;34745;52.276;10.528;2024-01-10T07:51:37;0.90;;;0.90;;
48935;SDS011;34745;52.276;10.528;2024-01-10T07:54:05;0.90;;;0.90;;
48935;SDS011;34745;52.276;10.528;2024-01-10T07:56:31;0.90;;;0.90;;
48935;SDS011;34745;52.276;10.528;2024-01-10T07:59:00;0.90;;;0.90;;
48935;SDS011;34745;52.276;10.528;2024-01-10T08:01:30;0.97;;;0.97;;
48935;SDS011;34745;52.276;10.528;2024-01-10T08:03:57;0.90;;;0.90;;
48935;SDS011;34745;52.276;10.528;2024-01-10T08:06:24;0.97;;;0.97;;
48935;SDS011;34745;52.276;10.528;2024-01-10T08:08:58;0.87;;;0.87;;
48935;SDS011;34745;52.276;10.528;2024-01-10T08:11:25;0.90;;;0.90;;
48935;SDS011;34745;52.276;10.528;2024-01-10T08:13:52;0.90;;;0.90;;
48935;SDS011;34745;52.276;10.528;2024-01-10T08:16:21;0.90;;;0.90;;
48935;SDS011;34745;52.276;10.528;2024-01-10T08:18:48;0.80;;;0.80;;
48935;SDS011;34745;52.276;10.528;2024-01-10T08:21:15;0.90;;;0.90;;
48935;SDS011;34745;52.276;10.528;2024-01-10T08:23:42;0.90;;;0.90;;
48935;SDS011;34745;52.276;10.528;2024-01-10T08:26:09;0.90;;;0.90;;
48935;SDS011;34745;52.276;10.528;2024-01-10T08:28:36;0.80;;;0.80;;
48935;SDS011;34745;52.276;10.528;2024-01-10T08:31:04;0.80;;;0.80;;
48935;SDS011;34745;52.276;10.528;2024-01-10T08:33:33;1.00;;;1.00;;
48935;SDS011;34745;52.276;10.528;2024-01-10T08:36:00;1.00;;;1.00;;
48935;SDS011;34745;52.276;10.528;2024-01-10T08:38:28;0.90;;;0.90;;
48935;SDS011;34745;52.276;10.528;2024-01-10T08:40:55;0.90;;;0.90;;
48935;SDS011;34745;52.276;10.528;2024-01-10T08:43:22;0.90;;;0.90;;
48935;SDS011;34745;52.276;10.528;2024-01-10T08:45:49;0.90;;;0.90;;
48935;SDS011;34745;52.276;10.528;2024-01-10T08:48:16;0.90;;;0.90;;
48935;SDS011;34745;52.276;10.528;2024-01-10T08:50:44;0.90;;;0.90;;
48935;SDS011;34745;52.276;10.528;2024-01-10T08:53:11;0.80;;;0.80;;
48935;SDS011;34745;52.276;10.528;2024-01-10T08:55:38;1.00;;;1.00;;
48935;SDS011;34745;52.276;10.528;2024-01-10T08:58:06;0.90;;;0.90;;
48935;SDS011;34745;52.276;10.528;2024-01-10T09:00:33;0.97;;;0.97;;
48935;SDS011;34745;52.276;10.528;2024-01-10T09:03:01;1.00;;;1.00;;
48935;SDS011;34745;52.276;10.528;2024-01-10T09:05:28;1.00;;;1.00;;
48935;SDS011;34745;52.276;10.528;2024-01-10T09:07:57;0.90;;;0.90;;
48935;SDS011;34745;52.276;10.528;2024-01-10T09:10:24;0.80;;;0.80;;
48935;SDS011;34745;52.276;10.528;2024-01-10T09:12:54;0.90;;;0.90;;
48935;SDS011;34745;52.276;10.528;2024-01-10T09:15:21;0.93;;;0.93;;
48935;SDS011;34745;52.276;10.528;2024-01-10T09:17:48;0.80;;;0.80;;
48935;SDS011;34745;52.276;10.528;2024-01-10T09:20:15;0.90;;;0.90;;
48935;SDS011;34745;52.276;10.528;2024-01-10T09:22:43;0.90;;;0.90;;
48935;SDS011;34745;52.276;10.528;2024-01-10T09:25:12;0.80;;;0.80;;
48935;SDS011;34745;52.276;10.528;2024-01-10T09:27:40;0.90;;;0.90;;
48935;SDS011;34745;52.276;10.528;2024-01-10T09:30:08;0.80;;;0.80;;
48935;SDS011;34745;52.276;10.528;2024-01-10T09:32:36;0.80;;;0.80;;
48935;SDS011;34745;52.276;10.528;2024-01-10T09:35:04;0.90;;;0.90;;
48935;SDS011;34745;52.276;10.528;2024-01-10T09:37:31;0.87;;;0.87;;
48935;SDS011;34745;52.276;10.528;2024-01-10T09:40:00;0.80;;;0.80;;
48935;SDS011;34745;52.276;10.528;2024-01-10T09:42:28;0.90;;;0.90;;
48935;SDS011;34745;52.276;10.528;2024-01-10T09:44:59;0.80;;;0.80;;
48935;SDS011;34745;52.276;10.528;2024-01-10T09:47:27;0.87;;;0.87;;
48935;SDS011;34745;52.276;10.528;2024-01-10T09:49:55;0.90;;;0.90;;
48935;SDS011;34745;52.276;10.528;2024-01-10T09:52:23;0.80;;;0.80;;
48935;SDS011;34745;52.276;10.528;2024-01-10T09:54:52;0.80;;;0.80;;
48935;SDS011;34745;52.276;10.528;2024-01-10T09:57:23;0.80;;;0.80;;
48935;SDS011;34745;52.276;10.528;2024-01-10T09:59:54;0.80;;;0.80;;
48935;SDS011;34745;52.276;10.528;2024-01-10T10:02:21;0.80;;;0.80;;
48935;SDS011;34745;52.276;10.528;2024-01-10T10:04:53;0.80;;;0.80;;
48935;SDS011;34745;52.276;10.528;2024-01-10T10:07:27;0.80;;;0.80;;
48935;SDS011;34745;52.276;10.528;2024-01-10T10:09:54;0.80;;;0.80;;
48935;SDS011;34745;52.276;10.528;2024-01-10T10:12:26;0.80;;;0.80;;
48935;SDS011;34745;52.276;10.528;2024-01-10T10:15:11;0.80;;;0.80;;
48935;SDS011;34745;52.276;10.528;2024-01-10T10:17:40;0.80;;;0.80;;
48935;SDS011;34745;52.276;10.528;2024-01-10T10:20:13;0.80;;;0.80;;
48935;SDS011;34745;52.276;10.528;2024-01-10T10:22:57;0.80;;;0.80;;
48935;SDS011;34745;52.276;10.528;2024-01-10T10:25:27;0.70;;;0.70;;
48935;SDS011;34745;52.276;10.528;2024-01-10T10:27:57;0.80;;;0.80;;
48935;SDS011;34745;52.276;10.528;2024-01-10T10:30:25;0.80;;;0.80;;
48935;SDS011;34745;52.276;10.528;2024-01-10T10:32:53;0.70;;;0.70;;
48935;SDS011;34745;52.276;10.528;2024-01-10T10:35:21;0.73;;;0.73;;
48935;SDS011;34745;52.276;10.528;2024-01-10T10:38:03;0.70;;;0.70;;
48935;SDS011;34745;52.276;10.528;2024-01-10T10:40:30;0.60;;;0.60;;
48935;SDS011;34745;52.276;10.528;2024-01-10T10:42:57;0.70;;;0.70;;
48935;SDS011;34745;52.276;10.528;2024-01-10T10:45:25;0.70;;;0.70;;
48935;SDS011;34745;52.276;10.528;2024-01-10T10:47:57;0.60;;;0.60;;
48935;SDS011;34745;52.276;10.528;2024-01-10T10:50:31;0.60;;;0.60;;
48935;SDS011;34745;52.276;10.528;2024-01-10T10:53:02;0.60;;;0.60;;
48935;SDS011;34745;52.276;10.528;2024-01-10T10:55:30;0.60;;;0.60;;
48935;SDS011;34745;52.276;10.528;2024-01-10T10:57:59;0.60;;;0.60;;
48935;SDS011;34745;52.276;10.528;2024-01-10T11:00:37;0.60;;;0.60;;
48935;SDS011;34745;52.276;10.528;2024-01-10T11:03:06;0.60;;;0.60;;
48935;SDS011;34745;52.276;10.528;2024-01-10T11:05:36;0.60;;;0.60;;
48935;SDS011;34745;52.276;10.528;2024-01-10T11:08:08;0.60;;;0.60;;
48935;SDS011;34745;52.276;10.528;2024-01-10T11:10:39;0.60;;;0.60;;
48935;SDS011;34745;52.276;10.528;2024-01-10T11:19:42;0.60;;;0.60;;
48935;SDS011;34745;52.276;10.528;2024-01-10T11:22:26;0.60;;;0.60;;
48935;SDS011;34745;52.276;10.528;2024-01-10T11:25:06;0.50;;;0.50;;
48935;SDS011;34745;52.276;10.528;2024-01-10T11:27:33;0.60;;;0.60;;
48935;SDS011;34745;52.276;10.528;2024-01-10T11:30:03;0.50;;;0.50;;
48935;SDS011;34745;52.276;10.528;2024-01-10T11:32:33;0.60;;;0.60;;
48935;SDS011;34745;52.276;10.528;2024-01-10T11:35:04;0.60;;;0.60;;
48935;SDS011;34745;52.276;10.528;2024-01-10T11:37:42;0.60;;;0.60;;
48935;SDS011;34745;52.276;10.528;2024-01-10T11:40:11;0.50;;;0.50;;
48935;SDS011;34745;52.276;10.528;2024-01-10T11:42:41;0.50;;;0.50;;
48935;SDS011;34745;52.276;10.528;2024-01-10T11:45:11;0.50;;;0.50;;
48935;SDS011;34745;52.276;10.528;2024-01-10T11:51:49;0.40;;;0.40;;
48935;SDS011;34745;52.276;10.528;2024-01-10T11:54:53;0.50;;;0.50;;
48935;SDS011;34745;52.276;10.528;2024-01-10T11:57:57;0.40;;;0.40;;
48935;SDS011;34745;52.276;10.528;2024-01-10T12:01:05;0.50;;;0.50;;
48935;SDS011;34745;52.276;10.528;2024-01-10T12:03:52;0.40;;;0.40;;
48935;SDS011;34745;52.276;10.528;2024-01-10T12:07:18;0.40;;;0.40;;
48935;SDS011;34745;52.276;10.528;2024-01-10T12:13:13;0.40;;;0.40;;
48935;SDS011;34745;52.276;10.528;2024-01-10T12:15:59;0.40;;;0.40;;
48935;SDS011;34745;52.276;10.528;2024-01-10T12:18:39;0.40;;;0.40;;
48935;SDS011;34745;52.276;10.528;2024-01-10T12:21:30;0.40;;;0.40;;
48935;SDS011;34745;52.276;10.528;2024-01-10T12:23:58;0.40;;;0.40;;
48935;SDS011;34745;52.276;10.528;2024-01-10T12:26:32;0.40;;;0.40;;
48935;SDS011;34745;52.276;10.528;2024-01-10T12:29:00;0.40;;;0.40;;
48935;SDS011;34745;52.276;10.528;2024-01-10T12:31:29;0.40;;;0.40;;
48935;SDS011;34745;52.276;10.528;2024-01-10T12:33:56;0.40;;;0.40;;
48935;SDS011;34745;52.276;10.528;2024-01-10T12:36:24;0.40;;;0.40;;
48935;SDS011;34745;52.276;10.528;2024-01-10T12:38:52;0.40;;;0.40;;
48935;SDS011;34745;52.276;10.528;2024-01-10T12:41:34;0.40;;;0.40;;
48935;SDS011;34745;52.276;10.528;2024-01-10T12:44:03;0.40;;;0.40;;
48935;SDS011;34745;52.276;10.528;2024-01-10T12:46:34;0.40;;;0.40;;
48935;SDS011;34745;52.276;10.528;2024-01-10T12:49:03;0.40;;;0.40;;
48935;SDS011;34745;52.276;10.528;2024-01-10T12:51:34;0.40;;;0.40;;
48935;SDS011;34745;52.276;10.528;2024-01-10T12:54:06;0.40;;;0.40;;
48935;SDS011;34745;52.276;10.528;2024-01-10T12:56:33;0.40;;;0.40;;
48935;SDS011;34745;52.276;10.528;2024-01-10T12:59:01;0.40;;;0.40;;
48935;SDS011;34745;52.276;10.528;2024-01-10T13:01:28;0.40;;;0.40;;
48935;SDS011;34745;52.276;10.528;2024-01-10T13:03:55;0.40;;;0.40;;
48935;SDS011;34745;52.276;10.528;2024-01-10T13:06:23;0.40;;;0.40;;
48935;SDS011;34745;52.276;10.528;2024-01-10T13:08:51;0.40;;;0.40;;
48935;SDS011;34745;52.276;10.528;2024-01-10T13:11:19;0.40;;;0.40;;
48935;SDS011;34745;52.276;10.528;2024-01-10T13:13:47;0.40;;;0.40;;
48935;SDS011;34745;52.276;10.528;2024-01-10T13:16:14;0.40;;;0.40;;
48935;SDS011;34745;52.276;10.528;2024-01-10T13:18:41;0.50;;;0.50;;
48935;SDS011;34745;52.276;10.528;2024-01-10T13:21:08;0.40;;;0.40;;
48935;SDS011;34745;52.276;10.528;2024-01-10T13:23:37;0.40;;;0.40;;
48935;SDS011;34745;52.276;10.528;2024-01-10T13:26:04;0.50;;;0.50;;
48935;SDS011;34745;52.276;10.528;2024-01-10T13:28:32;0.40;;;0.40;;
48935;SDS011;34745;52.276;10.528;2024-01-10T13:31:00;0.40;;;0.40;;
48935;SDS011;34745;52.276;10.528;2024-01-10T13:33:27;0.40;;;0.40;;
48935;SDS011;34745;52.276;10.528;2024-01-10T13:35:55;0.50;;;0.50;;
48935;SDS011;34745;52.276;10.528;2024-01-10T13:38:22;0.50;;;0.50;;
48935;SDS011;34745;52.276;10.528;2024-01-10T13:40:50;0.50;;;0.50;;
48935;SDS011;34745;52.276;10.528;2024-01-10T13:43:18;0.50;;;0.50;;
48935;SDS011;34745;52.276;10.528;2024-01-10T13:45:46;0.50;;;0.50;;
48935;SDS011;34745;52.276;10.528;2024-01-10T13:48:13;0.60;;;0.60;;
48935;SDS011;34745;52.276;10.528;2024-01-10T13:50:40;0.53;;;0.53;;
48935;SDS011;34745;52.276;10.528;2024-01-10T13:53:07;0.50;;;0.50;;
48935;SDS011;34745;52.276;10.528;2024-01-10T13:55:35;0.53;;;0.53;;
48935;SDS011;34745;52.276;10.528;2024-01-10T13:58:03;0.60;;;0.60;;
48935;SDS011;34745;52.276;10.528;2024-01-10T14:00:30;0.53;;;0.53;;
48935;SDS011;34745;52.276;10.528;2024-01-10T14:02:58;0.50;;;0.50;;
48935;SDS011;34745;52.276;10.528;2024-01-10T14:05:26;0.60;;;0.60;;
48935;SDS011;34745;52.276;10.528;2024-01-10T14:07:54;0.60;;;0.60;;
48935;SDS011;34745;52.276;10.528;2024-01-10T14:10:22;0.60;;;0.60;;
48935;SDS011;34745;52.276;10.528;2024-01-10T14:12:50;0.50;;;0.50;;
48935;SDS011;34745;52.276;10.528;2024-01-10T14:15:18;0.60;;;0.60;;
48935;SDS011;34745;52.276;10.528;2024-01-10T14:17:45;0.60;;;0.60;;
48935;SDS011;34745;52.276;10.528;2024-01-10T14:20:14;0.60;;;0.60;;
48935;SDS011;34745;52.276;10.528;2024-01-10T14:22:41;0.60;;;0.60;;
48935;SDS011;34745;52.276;10.528;2024-01-10T14:25:08;0.60;;;0.60;;
48935;SDS011;34745;52.276;10.528;2024-01-10T14:27:38;0.60;;;0.60;;
48935;SDS011;34745;52.276;10.528;2024-01-10T14:30:06;0.60;;;0.60;;
48935;SDS011;34745;52.276;10.528;2024-01-10T14:32:37;0.60;;;0.60;;
48935;SDS011;34745;52.276;10.528;2024-01-10T14:35:06;0.60;;;0.60;;
48935;SDS011;34745;52.276;10.528;2024-01-10T14:37:35;0.60;;;0.60;;
48935;SDS011;34745;52.276;10.528;2024-01-10T14:40:03;0.50;;;0.50;;
48935;SDS011;34745;52.276;10.528;2024-01-10T14:42:33;0.60;;;0.60;;
48935;SDS011;34745;52.276;10.528;2024-01-10T14:45:00;0.60;;;0.60;;
48935;SDS011;34745;52.276;10.528;2024-01-10T14:47:28;0.60;;;0.60;;
48935;SDS011;34745;52.276;10.528;2024-01-10T14:49:56;0.60;;;0.60;;
48935;SDS011;34745;52.276;10.528;2024-01-10T14:52:26;0.50;;;0.50;;
48935;SDS011;34745;52.276;10.528;2024-01-10T14:54:56;0.50;;;0.50;;
48935;SDS011;34745;52.276;10.528;2024-01-10T14:57:23;0.60;;;0.60;;
48935;SDS011;34745;52.276;10.528;2024-01-10T14:59:51;0.60;;;0.60;;
48935;SDS011;34745;52.276;10.528;2024-01-10T15:02:18;0.60;;;0.60;;
48935;SDS011;34745;52.276;10.528;2024-01-10T15:04:46;0.60;;;0.60;;
48935;SDS011;34745;52.276;10.528;2024-01-10T15:07:13;0.63;;;0.63;;
48935;SDS011;34745;52.276;10.528;2024-01-10T15:09:42;0.60;;;0.60;;
48935;SDS011;34745;52.276;10.528;2024-01-10T15:12:10;0.63;;;0.63;;
48935;SDS011;34745;52.276;10.528;2024-01-10T15:14:39;0.70;;;0.70;;
48935;SDS011;34745;52.276;10.528;2024-01-10T15:17:06;0.60;;;0.60;;
48935;SDS011;34745;52.276;10.528;2024-01-10T15:19:39;0.60;;;0.60;;
48935;SDS011;34745;52.276;10.528;2024-01-10T15:22:06;0.60;;;0.60;;
48935;SDS011;34745;52.276;10.528;2024-01-10T15:24:34;0.70;;;0.70;;
48935;SDS011;34745;52.276;10.528;2024-01-10T15:27:01;0.60;;;0.60;;
48935;SDS011;34745;52.276;10.528;2024-01-10T15:29:38;0.70;;;0.70;;
48935;SDS011;34745;52.276;10.528;2024-01-10T15:32:05;0.70;;;0.70;;
48935;SDS011;34745;52.276;10.528;2024-01-10T15:34:32;0.60;;;0.60;;
48935;SDS011;34745;52.276;10.528;2024-01-10T15:36:59;0.70;;;0.70;;
48935;SDS011;34745;52.276;10.528;2024-01-10T15:39:26;0.60;;;0.60;;
48935;SDS011;34745;52.276;10.528;2024-01-10T15:41:54;0.60;;;0.60;;
48935;SDS011;34745;52.276;10.528;2024-01-10T15:44:22;0.60;;;0.60;;
48935;SDS011;34745;52.276;10.528;2024-01-10T15:46:50;0.60;;;0.60;;
48935;SDS011;34745;52.276;10.528;2024-01-10T15:49:17;0.70;;;0.70;;
48935;SDS011;34745;52.276;10.528;2024-01-10T15:51:44;0.60;;;0.60;;
48935;SDS011;34745;52.276;10.528;2024-01-10T15:54:12;0.60;;;0.60;;
48935;SDS011;34745;52.276;10.528;2024-01-10T15:56:39;0.60;;;0.60;;
48935;SDS011;34745;52.276;10.528;2024-01-10T15:59:08;0.60;;;0.60;;
48935;SDS011;34745;52.276;10.528;2024-01-10T16:01:36;0.60;;;0.60;;
48935;SDS011;34745;52.276;10.528;2024-01-10T16:04:05;0.70;;;0.70;;
48935;SDS011;34745;52.276;10.528;2024-01-10T16:06:32;0.60;;;0.60;;
48935;SDS011;34745;52.276;10.528;2024-01-10T16:09:00;0.70;;;0.70;;
48935;SDS011;34745;52.276;10.528;2024-01-10T16:11:28;0.60;;;0.60;;
48935;SDS011;34745;52.276;10.528;2024-01-10T16:13:55;0.60;;;0.60;;
48935;SDS011;34745;52.276;10.528;2024-01-10T16:16:26;0.70;;;0.70;;
48935;SDS011;34745;52.276;10.528;2024-01-10T16:18:56;0.70;;;0.70;;
48935;SDS011;34745;52.276;10.528;2024-01-10T16:21:25;0.70;;;0.70;;
48935;SDS011;34745;52.276;10.528;2024-01-10T16:23:52;0.70;;;0.70;;
48935;SDS011;34745;52.276;10.528;2024-01-10T16:26:20;0.60;;;0.60;;
48935;SDS011;34745;52.276;10.528;2024-01-10T16:28:47;0.70;;;0.70;;
48935;SDS011;34745;52.276;10.528;2024-01-10T16:31:15;0.60;;;0.60;;
48935;SDS011;34745;52.276;10.528;2024-01-10T16:33:42;0.70;;;0.70;;
48935;SDS011;34745;52.276;10.528;2024-01-10T16:36:09;0.70;;;0.70;;
48935;SDS011;34745;52.276;10.528;2024-01-10T16:38:38;0.70;;;0.70;;
48935;SDS011;34745;52.276;10.528;2024-01-10T16:41:06;0.70;;;0.70;;
48935;SDS011;34745;52.276;10.528;2024-01-10T16:43:34;0.70;;;0.70;;
48935;SDS011;34745;52.276;10.528;2024-01-10T16:46:01;0.70;;;0.70;;
48935;SDS011;34745;52.276;10.528;2024-01-10T16:48:29;0.70;;;0.70;;
48935;SDS011;34745;52.276;10.528;2024-01-10T16:50:56;0.70;;;0.70;;
48935;SDS011;34745;52.276;10.528;2024-01-10T16:53:25;0.70;;;0.70;;
48935;SDS011;34745;52.276;10.528;2024-01-10T16:55:55;0.80;;;0.80;;
48935;SDS011;34745;52.276;10.528;2024-01-10T16:58:23;0.70;;;0.70;;
48935;SDS011;34745;52.276;10.528;2024-01-10T17:00:51;0.80;;;0.80;;
48935;SDS011;34745;52.276;10.528;2024-01-10T17:03:19;0.77;;;0.77;;
48935;SDS011;34745;52.276;10.528;2024-01-10T17:05:48;0.70;;;0.70;;
48935;SDS011;34745;52.276;10.528;2024-01-10T17:08:21;0.60;;;0.60;;